Chateauguay, Canada
Current Conditions -  °F | °C
As of 11:00 AM on Wednesday 22 Oct 2014 (Local Time) from CYUL Reporting Station
Broken Clouds Broken Clouds  
Wind Chill: 38°   Ceiling: 5000
Heat Index: 46°   Visibility: 15mi
Dew Point: 36°   Wind: 23mph
Humidity: 66%   Direction: 40°NE
Pressure: 30.28"   Gusts: NA
Location:  45.38°N, 73.75°W
Report Text: CYUL 221500Z 04020KT 15SM BKN050 BKN090 08/02 A3028 RMK SC6AC1 SLP256
Loading
Personal Weather Stations






























Interactive Weather Map
Tropical Storm Tracking
New forecast layout! Learn more

10-Day Weather Forecast

Advertisements
Track Severe Weather on mobile